sensor_id;sensor_type;location;lat;lon;timestamp;P1;durP1;ratioP1;P2;durP2;ratioP2
17024;SDS011;8629;42.496;25.620;2023-07-08T00:02:09;5.60;;;5.00;;
17024;SDS011;8629;42.496;25.620;2023-07-08T00:04:37;5.03;;;4.53;;
17024;SDS011;8629;42.496;25.620;2023-07-08T00:07:07;5.67;;;5.17;;
17024;SDS011;8629;42.496;25.620;2023-07-08T00:09:37;6.07;;;5.30;;
17024;SDS011;8629;42.496;25.620;2023-07-08T00:12:07;5.27;;;4.63;;
17024;SDS011;8629;42.496;25.620;2023-07-08T00:14:35;5.63;;;5.13;;
17024;SDS011;8629;42.496;25.620;2023-07-08T00:17:02;7.40;;;5.37;;
17024;SDS011;8629;42.496;25.620;2023-07-08T00:19:31;5.63;;;5.03;;
17024;SDS011;8629;42.496;25.620;2023-07-08T00:21:58;5.53;;;5.03;;
17024;SDS011;8629;42.496;25.620;2023-07-08T00:24:27;6.80;;;5.67;;
17024;SDS011;8629;42.496;25.620;2023-07-08T00:26:55;8.57;;;4.50;;
17024;SDS011;8629;42.496;25.620;2023-07-08T00:29:22;8.57;;;5.57;;
17024;SDS011;8629;42.496;25.620;2023-07-08T00:31:49;5.90;;;5.03;;
17024;SDS011;8629;42.496;25.620;2023-07-08T00:34:16;7.83;;;5.73;;
17024;SDS011;8629;42.496;25.620;2023-07-08T00:36:43;5.37;;;4.63;;
17024;SDS011;8629;42.496;25.620;2023-07-08T00:39:12;5.00;;;4.50;;
17024;SDS011;8629;42.496;25.620;2023-07-08T00:41:42;6.47;;;4.77;;
17024;SDS011;8629;42.496;25.620;2023-07-08T00:44:11;6.67;;;5.07;;
17024;SDS011;8629;42.496;25.620;2023-07-08T00:46:46;5.27;;;4.87;;
17024;SDS011;8629;42.496;25.620;2023-07-08T00:49:23;5.63;;;5.07;;
17024;SDS011;8629;42.496;25.620;2023-07-08T00:51:53;5.30;;;4.73;;
17024;SDS011;8629;42.496;25.620;2023-07-08T00:54:22;6.63;;;4.80;;
17024;SDS011;8629;42.496;25.620;2023-07-08T00:56:51;5.00;;;4.50;;
17024;SDS011;8629;42.496;25.620;2023-07-08T00:59:24;4.63;;;3.93;;
17024;SDS011;8629;42.496;25.620;2023-07-08T01:01:53;6.20;;;4.23;;
17024;SDS011;8629;42.496;25.620;2023-07-08T01:04:22;4.80;;;4.30;;
17024;SDS011;8629;42.496;25.620;2023-07-08T01:06:52;6.87;;;4.70;;
17024;SDS011;8629;42.496;25.620;2023-07-08T01:09:24;6.23;;;4.60;;
17024;SDS011;8629;42.496;25.620;2023-07-08T01:11:53;4.67;;;4.03;;
17024;SDS011;8629;42.496;25.620;2023-07-08T01:14:21;5.17;;;4.70;;
17024;SDS011;8629;42.496;25.620;2023-07-08T01:16:49;5.53;;;4.90;;
17024;SDS011;8629;42.496;25.620;2023-07-08T01:19:18;5.10;;;4.60;;
17024;SDS011;8629;42.496;25.620;2023-07-08T01:22:02;5.67;;;4.70;;
17024;SDS011;8629;42.496;25.620;2023-07-08T01:24:30;4.40;;;3.87;;
17024;SDS011;8629;42.496;25.620;2023-07-08T01:26:59;4.77;;;4.37;;
17024;SDS011;8629;42.496;25.620;2023-07-08T01:29:26;5.27;;;4.60;;
17024;SDS011;8629;42.496;25.620;2023-07-08T01:31:54;5.30;;;4.80;;
17024;SDS011;8629;42.496;25.620;2023-07-08T01:34:22;6.00;;;5.03;;
17024;SDS011;8629;42.496;25.620;2023-07-08T01:36:50;5.00;;;4.50;;
17024;SDS011;8629;42.496;25.620;2023-07-08T01:39:21;6.70;;;5.43;;
17024;SDS011;8629;42.496;25.620;2023-07-08T01:41:49;5.83;;;5.33;;
17024;SDS011;8629;42.496;25.620;2023-07-08T01:44:23;6.10;;;4.33;;
17024;SDS011;8629;42.496;25.620;2023-07-08T01:46:54;5.50;;;4.80;;
17024;SDS011;8629;42.496;25.620;2023-07-08T01:49:22;8.23;;;4.70;;
17024;SDS011;8629;42.496;25.620;2023-07-08T01:51:50;6.10;;;4.83;;
17024;SDS011;8629;42.496;25.620;2023-07-08T01:54:17;6.97;;;5.57;;
17024;SDS011;8629;42.496;25.620;2023-07-08T01:56:46;5.53;;;5.03;;
17024;SDS011;8629;42.496;25.620;2023-07-08T01:59:16;5.87;;;5.30;;
17024;SDS011;8629;42.496;25.620;2023-07-08T02:01:43;5.10;;;4.60;;
17024;SDS011;8629;42.496;25.620;2023-07-08T02:04:12;5.47;;;4.97;;
17024;SDS011;8629;42.496;25.620;2023-07-08T02:06:39;5.43;;;4.93;;
17024;SDS011;8629;42.496;25.620;2023-07-08T02:09:07;7.43;;;4.87;;
17024;SDS011;8629;42.496;25.620;2023-07-08T02:11:34;6.43;;;4.93;;
17024;SDS011;8629;42.496;25.620;2023-07-08T02:14:03;6.00;;;5.40;;
17024;SDS011;8629;42.496;25.620;2023-07-08T02:16:29;6.13;;;5.40;;
17024;SDS011;8629;42.496;25.620;2023-07-08T02:18:56;7.90;;;4.93;;
17024;SDS011;8629;42.496;25.620;2023-07-08T02:21:24;9.03;;;5.17;;
17024;SDS011;8629;42.496;25.620;2023-07-08T02:23:51;5.83;;;5.03;;
17024;SDS011;8629;42.496;25.620;2023-07-08T02:26:18;5.07;;;4.43;;
17024;SDS011;8629;42.496;25.620;2023-07-08T02:28:46;6.50;;;4.60;;
17024;SDS011;8629;42.496;25.620;2023-07-08T02:31:14;8.57;;;5.03;;
17024;SDS011;8629;42.496;25.620;2023-07-08T02:33:41;5.37;;;4.87;;
17024;SDS011;8629;42.496;25.620;2023-07-08T02:36:09;5.40;;;4.63;;
17024;SDS011;8629;42.496;25.620;2023-07-08T02:38:36;7.23;;;4.97;;
17024;SDS011;8629;42.496;25.620;2023-07-08T02:41:03;4.87;;;4.40;;
17024;SDS011;8629;42.496;25.620;2023-07-08T02:43:30;4.80;;;4.40;;
17024;SDS011;8629;42.496;25.620;2023-07-08T02:45:57;5.27;;;4.83;;
17024;SDS011;8629;42.496;25.620;2023-07-08T02:48:26;7.93;;;6.37;;
17024;SDS011;8629;42.496;25.620;2023-07-08T02:50:58;6.00;;;5.57;;
17024;SDS011;8629;42.496;25.620;2023-07-08T02:53:25;6.23;;;5.63;;
17024;SDS011;8629;42.496;25.620;2023-07-08T02:55:52;5.97;;;5.53;;
17024;SDS011;8629;42.496;25.620;2023-07-08T02:58:20;8.43;;;6.00;;
17024;SDS011;8629;42.496;25.620;2023-07-08T03:00:50;7.33;;;6.60;;
17024;SDS011;8629;42.496;25.620;2023-07-08T03:03:18;6.30;;;5.70;;
17024;SDS011;8629;42.496;25.620;2023-07-08T03:05:54;6.27;;;5.77;;
17024;SDS011;8629;42.496;25.620;2023-07-08T03:08:22;5.40;;;4.90;;
17024;SDS011;8629;42.496;25.620;2023-07-08T03:10:53;5.20;;;4.67;;
17024;SDS011;8629;42.496;25.620;2023-07-08T03:13:21;4.20;;;3.73;;
17024;SDS011;8629;42.496;25.620;2023-07-08T03:15:49;4.77;;;4.23;;
17024;SDS011;8629;42.496;25.620;2023-07-08T03:18:16;6.27;;;3.07;;
17024;SDS011;8629;42.496;25.620;2023-07-08T03:20:43;5.83;;;3.83;;
17024;SDS011;8629;42.496;25.620;2023-07-08T03:23:12;8.97;;;3.30;;
17024;SDS011;8629;42.496;25.620;2023-07-08T03:25:39;5.87;;;3.33;;
17024;SDS011;8629;42.496;25.620;2023-07-08T03:28:07;3.70;;;3.40;;
17024;SDS011;8629;42.496;25.620;2023-07-08T03:30:39;3.43;;;3.13;;
17024;SDS011;8629;42.496;25.620;2023-07-08T03:33:06;4.13;;;3.60;;
17024;SDS011;8629;42.496;25.620;2023-07-08T03:35:33;4.57;;;3.47;;
17024;SDS011;8629;42.496;25.620;2023-07-08T03:38:01;3.87;;;3.57;;
17024;SDS011;8629;42.496;25.620;2023-07-08T03:40:30;4.83;;;3.90;;
17024;SDS011;8629;42.496;25.620;2023-07-08T03:42:58;4.30;;;3.90;;
17024;SDS011;8629;42.496;25.620;2023-07-08T03:45:26;4.87;;;4.10;;
17024;SDS011;8629;42.496;25.620;2023-07-08T03:47:53;3.80;;;3.50;;
17024;SDS011;8629;42.496;25.620;2023-07-08T03:50:22;4.60;;;3.70;;
17024;SDS011;8629;42.496;25.620;2023-07-08T03:52:50;5.70;;;4.10;;
17024;SDS011;8629;42.496;25.620;2023-07-08T03:55:18;8.83;;;4.43;;
17024;SDS011;8629;42.496;25.620;2023-07-08T03:57:47;4.53;;;4.10;;
17024;SDS011;8629;42.496;25.620;2023-07-08T04:00:15;5.40;;;3.90;;
17024;SDS011;8629;42.496;25.620;2023-07-08T04:02:43;3.80;;;3.50;;
17024;SDS011;8629;42.496;25.620;2023-07-08T04:05:12;4.37;;;3.97;;
17024;SDS011;8629;42.496;25.620;2023-07-08T04:07:40;5.93;;;3.97;;
17024;SDS011;8629;42.496;25.620;2023-07-08T04:10:07;4.23;;;3.83;;
17024;SDS011;8629;42.496;25.620;2023-07-08T04:12:35;6.97;;;4.10;;
17024;SDS011;8629;42.496;25.620;2023-07-08T04:15:05;4.13;;;3.83;;
17024;SDS011;8629;42.496;25.620;2023-07-08T04:17:40;4.23;;;3.83;;
17024;SDS011;8629;42.496;25.620;2023-07-08T04:20:08;4.73;;;3.50;;
17024;SDS011;8629;42.496;25.620;2023-07-08T04:22:37;4.40;;;3.90;;
17024;SDS011;8629;42.496;25.620;2023-07-08T04:25:04;5.63;;;4.13;;
17024;SDS011;8629;42.496;25.620;2023-07-08T04:27:31;3.87;;;3.57;;
17024;SDS011;8629;42.496;25.620;2023-07-08T04:29:59;4.97;;;4.03;;
17024;SDS011;8629;42.496;25.620;2023-07-08T04:32:31;5.87;;;3.70;;
17024;SDS011;8629;42.496;25.620;2023-07-08T04:34:58;4.00;;;3.70;;
17024;SDS011;8629;42.496;25.620;2023-07-08T04:37:25;4.20;;;3.80;;
17024;SDS011;8629;42.496;25.620;2023-07-08T04:39:52;3.73;;;3.43;;
17024;SDS011;8629;42.496;25.620;2023-07-08T04:42:19;4.07;;;3.77;;
17024;SDS011;8629;42.496;25.620;2023-07-08T04:44:46;4.90;;;4.40;;
17024;SDS011;8629;42.496;25.620;2023-07-08T04:47:14;9.73;;;3.93;;
17024;SDS011;8629;42.496;25.620;2023-07-08T04:49:43;3.70;;;3.40;;
17024;SDS011;8629;42.496;25.620;2023-07-08T04:52:10;4.50;;;3.97;;
17024;SDS011;8629;42.496;25.620;2023-07-08T04:54:37;5.40;;;3.50;;
17024;SDS011;8629;42.496;25.620;2023-07-08T04:57:05;3.80;;;3.17;;
17024;SDS011;8629;42.496;25.620;2023-07-08T04:59:32;3.87;;;3.50;;
17024;SDS011;8629;42.496;25.620;2023-07-08T05:02:00;5.60;;;3.80;;
17024;SDS011;8629;42.496;25.620;2023-07-08T05:04:27;4.03;;;3.70;;
17024;SDS011;8629;42.496;25.620;2023-07-08T05:06:55;3.60;;;3.30;;
17024;SDS011;8629;42.496;25.620;2023-07-08T05:09:22;4.80;;;3.80;;
17024;SDS011;8629;42.496;25.620;2023-07-08T05:11:51;3.80;;;3.37;;
17024;SDS011;8629;42.496;25.620;2023-07-08T05:14:18;4.10;;;3.70;;
17024;SDS011;8629;42.496;25.620;2023-07-08T05:16:45;4.37;;;3.50;;
17024;SDS011;8629;42.496;25.620;2023-07-08T05:19:13;3.97;;;3.57;;
17024;SDS011;8629;42.496;25.620;2023-07-08T05:21:40;3.73;;;3.43;;
17024;SDS011;8629;42.496;25.620;2023-07-08T05:24:09;6.40;;;3.77;;
17024;SDS011;8629;42.496;25.620;2023-07-08T05:26:37;4.10;;;3.80;;
17024;SDS011;8629;42.496;25.620;2023-07-08T05:29:04;4.10;;;3.50;;
17024;SDS011;8629;42.496;25.620;2023-07-08T05:31:32;3.70;;;3.40;;
17024;SDS011;8629;42.496;25.620;2023-07-08T05:34:00;3.40;;;3.10;;
17024;SDS011;8629;42.496;25.620;2023-07-08T05:36:27;5.43;;;3.50;;
17024;SDS011;8629;42.496;25.620;2023-07-08T05:38:54;14.53;;;3.93;;
17024;SDS011;8629;42.496;25.620;2023-07-08T05:41:22;4.73;;;3.47;;
17024;SDS011;8629;42.496;25.620;2023-07-08T05:43:49;3.60;;;3.30;;
17024;SDS011;8629;42.496;25.620;2023-07-08T05:46:16;4.20;;;3.90;;
17024;SDS011;8629;42.496;25.620;2023-07-08T05:48:44;5.10;;;4.70;;
17024;SDS011;8629;42.496;25.620;2023-07-08T05:51:11;5.10;;;4.70;;
17024;SDS011;8629;42.496;25.620;2023-07-08T05:53:38;5.10;;;4.70;;
17024;SDS011;8629;42.496;25.620;2023-07-08T05:56:05;5.83;;;5.30;;
17024;SDS011;8629;42.496;25.620;2023-07-08T05:58:34;5.50;;;5.00;;
17024;SDS011;8629;42.496;25.620;2023-07-08T06:01:03;6.10;;;5.60;;
17024;SDS011;8629;42.496;25.620;2023-07-08T06:03:33;6.40;;;5.80;;
17024;SDS011;8629;42.496;25.620;2023-07-08T06:06:00;6.97;;;5.27;;
17024;SDS011;8629;42.496;25.620;2023-07-08T06:08:28;32.57;;;10.87;;
17024;SDS011;8629;42.496;25.620;2023-07-08T06:10:55;6.97;;;4.77;;
17024;SDS011;8629;42.496;25.620;2023-07-08T06:13:22;6.10;;;5.50;;
17024;SDS011;8629;42.496;25.620;2023-07-08T06:15:51;6.70;;;6.10;;
17024;SDS011;8629;42.496;25.620;2023-07-08T06:18:19;8.00;;;6.80;;
17024;SDS011;8629;42.496;25.620;2023-07-08T06:20:52;7.33;;;5.80;;
17024;SDS011;8629;42.496;25.620;2023-07-08T06:23:20;11.70;;;6.57;;
17024;SDS011;8629;42.496;25.620;2023-07-08T06:25:47;7.53;;;6.47;;
17024;SDS011;8629;42.496;25.620;2023-07-08T06:28:14;8.03;;;5.07;;
17024;SDS011;8629;42.496;25.620;2023-07-08T06:30:41;7.17;;;6.00;;
17024;SDS011;8629;42.496;25.620;2023-07-08T06:33:10;7.17;;;6.47;;
17024;SDS011;8629;42.496;25.620;2023-07-08T06:35:37;7.27;;;6.33;;
17024;SDS011;8629;42.496;25.620;2023-07-08T06:38:05;6.13;;;5.63;;
17024;SDS011;8629;42.496;25.620;2023-07-08T06:40:32;7.23;;;5.70;;
17024;SDS011;8629;42.496;25.620;2023-07-08T06:42:59;6.57;;;5.97;;
17024;SDS011;8629;42.496;25.620;2023-07-08T06:45:26;6.67;;;6.00;;
17024;SDS011;8629;42.496;25.620;2023-07-08T06:47:53;6.60;;;6.00;;
17024;SDS011;8629;42.496;25.620;2023-07-08T06:50:22;6.57;;;5.87;;
17024;SDS011;8629;42.496;25.620;2023-07-08T06:52:49;6.37;;;5.77;;
17024;SDS011;8629;42.496;25.620;2023-07-08T06:55:16;6.90;;;5.77;;
17024;SDS011;8629;42.496;25.620;2023-07-08T06:57:43;9.03;;;6.10;;
17024;SDS011;8629;42.496;25.620;2023-07-08T07:00:11;7.33;;;6.63;;
17024;SDS011;8629;42.496;25.620;2023-07-08T07:02:38;6.60;;;6.07;;
17024;SDS011;8629;42.496;25.620;2023-07-08T07:05:05;6.40;;;5.80;;
17024;SDS011;8629;42.496;25.620;2023-07-08T07:07:35;6.83;;;5.60;;
17024;SDS011;8629;42.496;25.620;2023-07-08T07:10:03;7.03;;;6.43;;
17024;SDS011;8629;42.496;25.620;2023-07-08T07:12:31;6.30;;;5.70;;
17024;SDS011;8629;42.496;25.620;2023-07-08T07:14:58;10.30;;;5.40;;
17024;SDS011;8629;42.496;25.620;2023-07-08T07:17:25;6.80;;;5.50;;
17024;SDS011;8629;42.496;25.620;2023-07-08T07:19:53;5.53;;;5.03;;
17024;SDS011;8629;42.496;25.620;2023-07-08T07:22:20;7.93;;;5.33;;
17024;SDS011;8629;42.496;25.620;2023-07-08T07:24:49;5.30;;;4.90;;
17024;SDS011;8629;42.496;25.620;2023-07-08T07:27:16;5.07;;;4.67;;
17024;SDS011;8629;42.496;25.620;2023-07-08T07:29:43;6.93;;;5.40;;
17024;SDS011;8629;42.496;25.620;2023-07-08T07:32:11;5.80;;;5.30;;
17024;SDS011;8629;42.496;25.620;2023-07-08T07:34:39;5.17;;;4.77;;
17024;SDS011;8629;42.496;25.620;2023-07-08T07:37:06;5.60;;;4.87;;
17024;SDS011;8629;42.496;25.620;2023-07-08T07:39:37;6.17;;;5.57;;
17024;SDS011;8629;42.496;25.620;2023-07-08T07:42:06;6.07;;;5.47;;
17024;SDS011;8629;42.496;25.620;2023-07-08T07:44:34;5.87;;;5.37;;
17024;SDS011;8629;42.496;25.620;2023-07-08T07:47:01;5.73;;;5.23;;
17024;SDS011;8629;42.496;25.620;2023-07-08T07:49:29;6.97;;;5.40;;
17024;SDS011;8629;42.496;25.620;2023-07-08T07:51:55;6.67;;;4.87;;
17024;SDS011;8629;42.496;25.620;2023-07-08T07:54:22;4.83;;;4.43;;
17024;SDS011;8629;42.496;25.620;2023-07-08T07:56:49;4.80;;;4.40;;
17024;SDS011;8629;42.496;25.620;2023-07-08T07:59:17;6.07;;;4.90;;
17024;SDS011;8629;42.496;25.620;2023-07-08T08:01:46;5.87;;;5.37;;
17024;SDS011;8629;42.496;25.620;2023-07-08T08:04:13;5.60;;;5.10;;
17024;SDS011;8629;42.496;25.620;2023-07-08T08:06:40;5.80;;;4.90;;
17024;SDS011;8629;42.496;25.620;2023-07-08T08:09:07;5.80;;;4.90;;
17024;SDS011;8629;42.496;25.620;2023-07-08T08:11:35;5.57;;;5.07;;
17024;SDS011;8629;42.496;25.620;2023-07-08T08:14:02;5.77;;;5.27;;
17024;SDS011;8629;42.496;25.620;2023-07-08T08:16:31;5.60;;;5.10;;
17024;SDS011;8629;42.496;25.620;2023-07-08T08:18:58;5.93;;;4.33;;
17024;SDS011;8629;42.496;25.620;2023-07-08T08:21:25;5.47;;;5.00;;
17024;SDS011;8629;42.496;25.620;2023-07-08T08:23:52;7.07;;;5.13;;
17024;SDS011;8629;42.496;25.620;2023-07-08T08:26:19;5.00;;;4.50;;
17024;SDS011;8629;42.496;25.620;2023-07-08T08:28:46;5.17;;;4.67;;
17024;SDS011;8629;42.496;25.620;2023-07-08T08:31:13;6.10;;;4.77;;
17024;SDS011;8629;42.496;25.620;2023-07-08T08:33:42;4.90;;;4.50;;
17024;SDS011;8629;42.496;25.620;2023-07-08T08:36:12;4.17;;;3.70;;
17024;SDS011;8629;42.496;25.620;2023-07-08T08:38:39;5.37;;;3.77;;
17024;SDS011;8629;42.496;25.620;2023-07-08T08:41:09;8.90;;;5.10;;
17024;SDS011;8629;42.496;25.620;2023-07-08T08:43:39;6.60;;;4.80;;
17024;SDS011;8629;42.496;25.620;2023-07-08T08:46:08;5.20;;;4.37;;
17024;SDS011;8629;42.496;25.620;2023-07-08T08:48:38;6.10;;;4.20;;
17024;SDS011;8629;42.496;25.620;2023-07-08T08:51:13;6.57;;;4.30;;
17024;SDS011;8629;42.496;25.620;2023-07-08T08:53:41;4.87;;;3.70;;
17024;SDS011;8629;42.496;25.620;2023-07-08T08:56:10;7.77;;;4.07;;
17024;SDS011;8629;42.496;25.620;2023-07-08T08:58:43;6.40;;;4.20;;
17024;SDS011;8629;42.496;25.620;2023-07-08T09:01:11;5.47;;;4.90;;
17024;SDS011;8629;42.496;25.620;2023-07-08T09:03:41;4.57;;;3.87;;
17024;SDS011;8629;42.496;25.620;2023-07-08T09:06:13;4.57;;;4.17;;
17024;SDS011;8629;42.496;25.620;2023-07-08T09:08:43;4.37;;;3.97;;
17024;SDS011;8629;42.496;25.620;2023-07-08T09:11:13;6.13;;;4.57;;
17024;SDS011;8629;42.496;25.620;2023-07-08T09:13:45;4.13;;;3.73;;
17024;SDS011;8629;42.496;25.620;2023-07-08T09:16:14;5.23;;;4.73;;
17024;SDS011;8629;42.496;25.620;2023-07-08T09:18:49;8.07;;;4.53;;
17024;SDS011;8629;42.496;25.620;2023-07-08T09:21:24;6.43;;;4.60;;
17024;SDS011;8629;42.496;25.620;2023-07-08T09:23:54;4.77;;;4.37;;
17024;SDS011;8629;42.496;25.620;2023-07-08T09:26:25;5.57;;;5.07;;
17024;SDS011;8629;42.496;25.620;2023-07-08T09:28:54;5.87;;;5.23;;
17024;SDS011;8629;42.496;25.620;2023-07-08T09:31:22;6.43;;;4.93;;
17024;SDS011;8629;42.496;25.620;2023-07-08T09:33:53;4.93;;;4.17;;
17024;SDS011;8629;42.496;25.620;2023-07-08T09:36:22;5.47;;;5.00;;
17024;SDS011;8629;42.496;25.620;2023-07-08T09:38:50;5.43;;;4.93;;
17024;SDS011;8629;42.496;25.620;2023-07-08T09:41:31;5.43;;;4.77;;
17024;SDS011;8629;42.496;25.620;2023-07-08T09:44:03;7.20;;;5.73;;
17024;SDS011;8629;42.496;25.620;2023-07-08T09:46:35;5.20;;;4.80;;
17024;SDS011;8629;42.496;25.620;2023-07-08T09:49:12;5.87;;;5.37;;
17024;SDS011;8629;42.496;25.620;2023-07-08T09:51:43;8.53;;;5.10;;
17024;SDS011;8629;42.496;25.620;2023-07-08T09:54:10;5.53;;;4.93;;
17024;SDS011;8629;42.496;25.620;2023-07-08T09:56:40;5.10;;;4.60;;
17024;SDS011;8629;42.496;25.620;2023-07-08T09:59:13;6.13;;;4.53;;
17024;SDS011;8629;42.496;25.620;2023-07-08T10:01:41;5.67;;;5.23;;
17024;SDS011;8629;42.496;25.620;2023-07-08T10:04:12;5.90;;;5.07;;
17024;SDS011;8629;42.496;25.620;2023-07-08T10:06:39;6.07;;;5.43;;
17024;SDS011;8629;42.496;25.620;2023-07-08T10:09:12;6.20;;;5.70;;
17024;SDS011;8629;42.496;25.620;2023-07-08T10:11:46;6.43;;;5.53;;
17024;SDS011;8629;42.496;25.620;2023-07-08T10:14:17;7.27;;;6.57;;
17024;SDS011;8629;42.496;25.620;2023-07-08T10:16:50;6.53;;;6.10;;
17024;SDS011;8629;42.496;25.620;2023-07-08T10:19:19;7.20;;;6.60;;
17024;SDS011;8629;42.496;25.620;2023-07-08T10:21:49;7.20;;;6.60;;
17024;SDS011;8629;42.496;25.620;2023-07-08T10:24:24;7.10;;;6.60;;
17024;SDS011;8629;42.496;25.620;2023-07-08T10:26:58;7.50;;;6.80;;
17024;SDS011;8629;42.496;25.620;2023-07-08T10:29:31;8.00;;;7.30;;
17024;SDS011;8629;42.496;25.620;2023-07-08T10:32:03;7.33;;;6.73;;
17024;SDS011;8629;42.496;25.620;2023-07-08T10:34:39;7.47;;;6.77;;
17024;SDS011;8629;42.496;25.620;2023-07-08T10:37:15;7.13;;;6.53;;
17024;SDS011;8629;42.496;25.620;2023-07-08T10:42:43;8.23;;;7.53;;
17024;SDS011;8629;42.496;25.620;2023-07-08T10:45:38;8.03;;;7.40;;
17024;SDS011;8629;42.496;25.620;2023-07-08T10:48:15;7.93;;;7.23;;
17024;SDS011;8629;42.496;25.620;2023-07-08T10:50:57;7.30;;;6.80;;
17024;SDS011;8629;42.496;25.620;2023-07-08T10:53:41;6.87;;;6.27;;
17024;SDS011;8629;42.496;25.620;2023-07-08T10:56:18;7.07;;;6.57;;
17024;SDS011;8629;42.496;25.620;2023-07-08T10:58:52;6.57;;;6.07;;
17024;SDS011;8629;42.496;25.620;2023-07-08T11:01:28;7.17;;;6.67;;
17024;SDS011;8629;42.496;25.620;2023-07-08T11:04:01;6.77;;;6.27;;
17024;SDS011;8629;42.496;25.620;2023-07-08T11:06:40;7.13;;;5.40;;
17024;SDS011;8629;42.496;25.620;2023-07-08T11:09:12;5.97;;;5.47;;
17024;SDS011;8629;42.496;25.620;2023-07-08T11:11:42;6.70;;;6.20;;
17024;SDS011;8629;42.496;25.620;2023-07-08T11:14:13;7.40;;;6.57;;
17024;SDS011;8629;42.496;25.620;2023-07-08T11:16:44;7.17;;;6.43;;
17024;SDS011;8629;42.496;25.620;2023-07-08T11:19:13;7.17;;;6.67;;
17024;SDS011;8629;42.496;25.620;2023-07-08T11:21:44;7.53;;;6.83;;
17024;SDS011;8629;42.496;25.620;2023-07-08T11:24:13;8.50;;;7.70;;
17024;SDS011;8629;42.496;25.620;2023-07-08T11:26:47;6.60;;;6.20;;
17024;SDS011;8629;42.496;25.620;2023-07-08T11:29:17;7.27;;;6.70;;
17024;SDS011;8629;42.496;25.620;2023-07-08T11:31:46;8.33;;;7.53;;
17024;SDS011;8629;42.496;25.620;2023-07-08T11:34:15;7.10;;;6.60;;
17024;SDS011;8629;42.496;25.620;2023-07-08T11:36:45;9.17;;;8.37;;
17024;SDS011;8629;42.496;25.620;2023-07-08T11:39:31;8.80;;;8.10;;
17024;SDS011;8629;42.496;25.620;2023-07-08T11:42:11;7.83;;;7.17;;
17024;SDS011;8629;42.496;25.620;2023-07-08T11:44:43;8.00;;;7.20;;
17024;SDS011;8629;42.496;25.620;2023-07-08T11:47:15;7.73;;;7.13;;
17024;SDS011;8629;42.496;25.620;2023-07-08T11:49:46;7.60;;;6.97;;
17024;SDS011;8629;42.496;25.620;2023-07-08T11:52:18;7.97;;;6.53;;
17024;SDS011;8629;42.496;25.620;2023-07-08T11:54:47;7.17;;;6.40;;
17024;SDS011;8629;42.496;25.620;2023-07-08T11:57:18;6.57;;;6.07;;
17024;SDS011;8629;42.496;25.620;2023-07-08T12:00:06;6.80;;;6.20;;
17024;SDS011;8629;42.496;25.620;2023-07-08T12:02:48;6.10;;;5.70;;
17024;SDS011;8629;42.496;25.620;2023-07-08T12:05:29;6.23;;;5.73;;
17024;SDS011;8629;42.496;25.620;2023-07-08T12:07:59;6.37;;;5.77;;
17024;SDS011;8629;42.496;25.620;2023-07-08T12:10:31;6.67;;;6.13;;
17024;SDS011;8629;42.496;25.620;2023-07-08T12:13:00;6.40;;;5.90;;
17024;SDS011;8629;42.496;25.620;2023-07-08T12:15:29;6.17;;;5.67;;
17024;SDS011;8629;42.496;25.620;2023-07-08T12:17:58;5.50;;;5.10;;
17024;SDS011;8629;42.496;25.620;2023-07-08T12:20:29;5.40;;;5.00;;
17024;SDS011;8629;42.496;25.620;2023-07-08T12:22:57;5.00;;;4.70;;
17024;SDS011;8629;42.496;25.620;2023-07-08T12:25:27;5.20;;;4.80;;
17024;SDS011;8629;42.496;25.620;2023-07-08T12:27:56;4.67;;;4.27;;
17024;SDS011;8629;42.496;25.620;2023-07-08T12:30:23;4.53;;;4.23;;
17024;SDS011;8629;42.496;25.620;2023-07-08T12:32:52;4.57;;;4.17;;
17024;SDS011;8629;42.496;25.620;2023-07-08T12:35:22;4.77;;;4.37;;
17024;SDS011;8629;42.496;25.620;2023-07-08T12:37:50;4.83;;;4.50;;
17024;SDS011;8629;42.496;25.620;2023-07-08T12:40:19;4.70;;;4.00;;
17024;SDS011;8629;42.496;25.620;2023-07-08T12:42:49;4.60;;;4.27;;
17024;SDS011;8629;42.496;25.620;2023-07-08T12:45:16;5.23;;;4.03;;
17024;SDS011;8629;42.496;25.620;2023-07-08T12:47:46;4.37;;;4.07;;
17024;SDS011;8629;42.496;25.620;2023-07-08T12:50:13;5.60;;;4.43;;
17024;SDS011;8629;42.496;25.620;2023-07-08T12:52:41;4.90;;;4.50;;
17024;SDS011;8629;42.496;25.620;2023-07-08T12:55:10;4.97;;;4.57;;
17024;SDS011;8629;42.496;25.620;2023-07-08T12:57:37;4.30;;;4.00;;
17024;SDS011;8629;42.496;25.620;2023-07-08T13:00:08;4.83;;;4.43;;
17024;SDS011;8629;42.496;25.620;2023-07-08T13:02:39;4.23;;;3.93;;
17024;SDS011;8629;42.496;25.620;2023-07-08T13:05:06;4.50;;;4.20;;
17024;SDS011;8629;42.496;25.620;2023-07-08T13:07:35;4.23;;;3.90;;
17024;SDS011;8629;42.496;25.620;2023-07-08T13:10:04;4.67;;;4.37;;
17024;SDS011;8629;42.496;25.620;2023-07-08T13:12:34;3.83;;;3.53;;
17024;SDS011;8629;42.496;25.620;2023-07-08T13:15:03;3.60;;;3.30;;
17024;SDS011;8629;42.496;25.620;2023-07-08T13:17:38;4.93;;;4.53;;
17024;SDS011;8629;42.496;25.620;2023-07-08T13:20:07;4.47;;;4.07;;
17024;SDS011;8629;42.496;25.620;2023-07-08T13:22:36;4.57;;;4.17;;
17024;SDS011;8629;42.496;25.620;2023-07-08T13:25:09;4.30;;;4.00;;
17024;SDS011;8629;42.496;25.620;2023-07-08T13:27:40;3.80;;;3.50;;
17024;SDS011;8629;42.496;25.620;2023-07-08T13:30:20;4.73;;;4.17;;
17024;SDS011;8629;42.496;25.620;2023-07-08T13:32:51;5.83;;;4.00;;
17024;SDS011;8629;42.496;25.620;2023-07-08T13:35:26;4.67;;;4.17;;
17024;SDS011;8629;42.496;25.620;2023-07-08T13:37:55;4.13;;;3.73;;
17024;SDS011;8629;42.496;25.620;2023-07-08T13:40:22;4.50;;;4.20;;
17024;SDS011;8629;42.496;25.620;2023-07-08T13:42:49;4.27;;;3.97;;
17024;SDS011;8629;42.496;25.620;2023-07-08T13:45:22;8.60;;;4.10;;
17024;SDS011;8629;42.496;25.620;2023-07-08T13:47:57;4.57;;;4.27;;
17024;SDS011;8629;42.496;25.620;2023-07-08T13:50:32;3.43;;;3.23;;
17024;SDS011;8629;42.496;25.620;2023-07-08T13:53:12;5.60;;;4.17;;
17024;SDS011;8629;42.496;25.620;2023-07-08T13:55:42;4.50;;;3.73;;
17024;SDS011;8629;42.496;25.620;2023-07-08T13:58:13;5.63;;;4.43;;
17024;SDS011;8629;42.496;25.620;2023-07-08T14:00:43;3.70;;;3.40;;
17024;SDS011;8629;42.496;25.620;2023-07-08T14:03:10;3.60;;;3.30;;
17024;SDS011;8629;42.496;25.620;2023-07-08T14:05:38;3.90;;;3.60;;
17024;SDS011;8629;42.496;25.620;2023-07-08T14:08:09;3.63;;;3.33;;
17024;SDS011;8629;42.496;25.620;2023-07-08T14:10:38;3.67;;;3.37;;
17024;SDS011;8629;42.496;25.620;2023-07-08T14:13:05;4.30;;;3.83;;
17024;SDS011;8629;42.496;25.620;2023-07-08T14:15:32;4.60;;;3.97;;
17024;SDS011;8629;42.496;25.620;2023-07-08T14:18:01;3.97;;;3.57;;
17024;SDS011;8629;42.496;25.620;2023-07-08T14:20:28;3.70;;;3.17;;
17024;SDS011;8629;42.496;25.620;2023-07-08T14:22:55;5.57;;;3.57;;
17024;SDS011;8629;42.496;25.620;2023-07-08T14:25:22;6.93;;;4.00;;
17024;SDS011;8629;42.496;25.620;2023-07-08T14:27:50;4.13;;;3.73;;
17024;SDS011;8629;42.496;25.620;2023-07-08T14:30:16;4.80;;;3.67;;
17024;SDS011;8629;42.496;25.620;2023-07-08T14:32:43;4.40;;;4.00;;
17024;SDS011;8629;42.496;25.620;2023-07-08T14:35:16;4.37;;;3.97;;
17024;SDS011;8629;42.496;25.620;2023-07-08T14:37:44;4.20;;;3.80;;
17024;SDS011;8629;42.496;25.620;2023-07-08T14:42:59;4.27;;;3.97;;
17024;SDS011;8629;42.496;25.620;2023-07-08T14:45:29;3.50;;;3.20;;
17024;SDS011;8629;42.496;25.620;2023-07-08T14:47:56;3.10;;;2.90;;
17024;SDS011;8629;42.496;25.620;2023-07-08T14:50:25;2.73;;;2.53;;
17024;SDS011;8629;42.496;25.620;2023-07-08T14:52:54;3.27;;;2.97;;
17024;SDS011;8629;42.496;25.620;2023-07-08T14:55:22;2.93;;;2.73;;
17024;SDS011;8629;42.496;25.620;2023-07-08T14:57:49;3.20;;;2.90;;
17024;SDS011;8629;42.496;25.620;2023-07-08T15:00:17;2.40;;;2.20;;
17024;SDS011;8629;42.496;25.620;2023-07-08T15:02:46;2.67;;;2.47;;
17024;SDS011;8629;42.496;25.620;2023-07-08T15:05:14;2.77;;;2.57;;
17024;SDS011;8629;42.496;25.620;2023-07-08T15:07:47;2.70;;;2.50;;